sensor_id;sensor_type;location;lat;lon;timestamp;pressure;altitude;pressure_sealevel;temperature;humidity
17855;BME280;9053;53.358;6.382;2023-03-03T00:00:16;102608.41;;;2.42;100.00
17855;BME280;9053;53.358;6.382;2023-03-03T00:02:47;102605.47;;;2.39;100.00
17855;BME280;9053;53.358;6.382;2023-03-03T00:05:17;102606.25;;;2.38;100.00
17855;BME280;9053;53.358;6.382;2023-03-03T00:07:46;102610.38;;;2.36;100.00
17855;BME280;9053;53.358;6.382;2023-03-03T00:10:19;102616.50;;;2.36;100.00
17855;BME280;9053;53.358;6.382;2023-03-03T00:12:49;102619.88;;;2.35;100.00
17855;BME280;9053;53.358;6.382;2023-03-03T00:15:22;102616.50;;;2.36;100.00
17855;BME280;9053;53.358;6.382;2023-03-03T00:17:53;102618.06;;;2.34;100.00
17855;BME280;9053;53.358;6.382;2023-03-03T00:20:31;102619.72;;;2.34;100.00
17855;BME280;9053;53.358;6.382;2023-03-03T00:23:19;102615.28;;;2.33;100.00
17855;BME280;9053;53.358;6.382;2023-03-03T00:25:52;102610.72;;;2.30;100.00
17855;BME280;9053;53.358;6.382;2023-03-03T00:28:25;102616.84;;;2.31;100.00
17855;BME280;9053;53.358;6.382;2023-03-03T00:30:57;102621.13;;;2.30;100.00
17855;BME280;9053;53.358;6.382;2023-03-03T00:33:30;102616.53;;;2.28;100.00
17855;BME280;9053;53.358;6.382;2023-03-03T00:36:24;102615.75;;;2.29;100.00
17855;BME280;9053;53.358;6.382;2023-03-03T00:39:20;102615.47;;;2.26;100.00
17855;BME280;9053;53.358;6.382;2023-03-03T00:41:57;102612.59;;;2.23;100.00
17855;BME280;9053;53.358;6.382;2023-03-03T00:44:38;102619.47;;;2.22;100.00
17855;BME280;9053;53.358;6.382;2023-03-03T00:47:25;102614.13;;;2.21;100.00
17855;BME280;9053;53.358;6.382;2023-03-03T00:50:27;102614.13;;;2.21;100.00
17855;BME280;9053;53.358;6.382;2023-03-03T00:53:03;102609.72;;;2.20;100.00
17855;BME280;9053;53.358;6.382;2023-03-03T00:55:34;102611.25;;;2.17;100.00
17855;BME280;9053;53.358;6.382;2023-03-03T00:58:07;102603.16;;;2.14;100.00
17855;BME280;9053;53.358;6.382;2023-03-03T01:00:39;102610.78;;;2.13;100.00
17855;BME280;9053;53.358;6.382;2023-03-03T01:03:13;102606.22;;;2.10;100.00
17855;BME280;9053;53.358;6.382;2023-03-03T01:05:43;102603.47;;;2.09;100.00
17855;BME280;9053;53.358;6.382;2023-03-03T01:08:19;102606.69;;;2.06;100.00
17855;BME280;9053;53.358;6.382;2023-03-03T01:10:52;102599.53;;;2.04;100.00
17855;BME280;9053;53.358;6.382;2023-03-03T01:13:27;102607.19;;;2.02;100.00
17855;BME280;9053;53.358;6.382;2023-03-03T01:15:59;102602.75;;;2.01;99.90
17855;BME280;9053;53.358;6.382;2023-03-03T01:18:30;102603.34;;;1.99;99.80
17855;BME280;9053;53.358;6.382;2023-03-03T01:21:03;102606.91;;;1.99;99.77
17855;BME280;9053;53.358;6.382;2023-03-03T01:23:33;102603.22;;;1.97;99.69
17855;BME280;9053;53.358;6.382;2023-03-03T01:26:04;102606.56;;;1.96;99.50
17855;BME280;9053;53.358;6.382;2023-03-03T01:28:36;102597.88;;;1.95;99.53
17855;BME280;9053;53.358;6.382;2023-03-03T01:31:07;102597.72;;;1.94;99.48
17855;BME280;9053;53.358;6.382;2023-03-03T01:33:37;102601.25;;;1.94;99.27
17855;BME280;9053;53.358;6.382;2023-03-03T01:36:07;102593.47;;;1.94;99.26
17855;BME280;9053;53.358;6.382;2023-03-03T01:38:38;102591.63;;;1.93;99.09
17855;BME280;9053;53.358;6.382;2023-03-03T01:41:10;102599.41;;;1.93;99.19
17855;BME280;9053;53.358;6.382;2023-03-03T01:43:48;102587.94;;;1.91;99.01
17855;BME280;9053;53.358;6.382;2023-03-03T01:46:39;102590.72;;;1.93;99.00
17855;BME280;9053;53.358;6.382;2023-03-03T01:49:15;102595.00;;;1.92;98.99
17855;BME280;9053;53.358;6.382;2023-03-03T01:51:50;102582.75;;;1.91;98.83
17855;BME280;9053;53.358;6.382;2023-03-03T01:54:27;102591.50;;;1.92;98.67
17855;BME280;9053;53.358;6.382;2023-03-03T01:57:00;102587.81;;;1.90;98.75
17855;BME280;9053;53.358;6.382;2023-03-03T01:59:36;102589.66;;;1.91;98.79
17855;BME280;9053;53.358;6.382;2023-03-03T02:02:09;102587.81;;;1.90;98.55
17855;BME280;9053;53.358;6.382;2023-03-03T02:04:39;102585.22;;;1.90;98.51
17855;BME280;9053;53.358;6.382;2023-03-03T02:07:10;102584.31;;;1.89;98.48
17855;BME280;9053;53.358;6.382;2023-03-03T02:09:48;102592.84;;;1.88;98.44
17855;BME280;9053;53.358;6.382;2023-03-03T02:12:24;102590.13;;;1.87;98.22
17855;BME280;9053;53.358;6.382;2023-03-03T02:14:57;102584.94;;;1.87;98.28
17855;BME280;9053;53.358;6.382;2023-03-03T02:17:27;102586.75;;;1.88;98.31
17855;BME280;9053;53.358;6.382;2023-03-03T02:20:02;102583.38;;;1.89;98.21
17855;BME280;9053;53.358;6.382;2023-03-03T02:22:40;102583.38;;;1.89;98.26
17855;BME280;9053;53.358;6.382;2023-03-03T02:25:17;102582.94;;;1.93;98.12
17855;BME280;9053;53.358;6.382;2023-03-03T02:27:52;102584.00;;;1.95;98.26
17855;BME280;9053;53.358;6.382;2023-03-03T02:30:23;102582.47;;;1.97;98.07
17855;BME280;9053;53.358;6.382;2023-03-03T02:32:53;102586.13;;;1.99;98.22
17855;BME280;9053;53.358;6.382;2023-03-03T02:35:30;102585.50;;;2.02;98.28
17855;BME280;9053;53.358;6.382;2023-03-03T02:38:10;102581.34;;;2.04;98.24
17855;BME280;9053;53.358;6.382;2023-03-03T02:40:48;102583.94;;;2.04;98.31
17855;BME280;9053;53.358;6.382;2023-03-03T02:43:23;102580.59;;;2.05;98.32
17855;BME280;9053;53.358;6.382;2023-03-03T02:45:55;102586.69;;;2.05;98.36
17855;BME280;9053;53.358;6.382;2023-03-03T02:48:25;102591.28;;;2.08;98.32
17855;BME280;9053;53.358;6.382;2023-03-03T02:50:55;102583.50;;;2.08;98.31
17855;BME280;9053;53.358;6.382;2023-03-03T02:53:25;102581.78;;;2.08;98.38
17855;BME280;9053;53.358;6.382;2023-03-03T02:55:55;102584.69;;;2.11;98.24
17855;BME280;9053;53.358;6.382;2023-03-03T02:58:27;102580.28;;;2.10;98.29
17855;BME280;9053;53.358;6.382;2023-03-03T03:00:57;102585.47;;;2.10;98.30
17855;BME280;9053;53.358;6.382;2023-03-03T03:03:27;102586.38;;;2.11;98.48
17855;BME280;9053;53.358;6.382;2023-03-03T03:05:57;102580.28;;;2.10;98.31
17855;BME280;9053;53.358;6.382;2023-03-03T03:08:27;102589.88;;;2.11;98.36
17855;BME280;9053;53.358;6.382;2023-03-03T03:10:57;102589.88;;;2.11;98.41
17855;BME280;9053;53.358;6.382;2023-03-03T03:13:30;102577.66;;;2.10;98.41
17855;BME280;9053;53.358;6.382;2023-03-03T03:16:01;102580.09;;;2.09;98.26
17855;BME280;9053;53.358;6.382;2023-03-03T03:18:33;102586.25;;;2.09;98.33
17855;BME280;9053;53.358;6.382;2023-03-03T03:21:07;102581.19;;;2.11;98.33
17855;BME280;9053;53.358;6.382;2023-03-03T03:23:38;102576.88;;;2.11;98.36
17855;BME280;9053;53.358;6.382;2023-03-03T03:26:09;102580.56;;;2.13;98.39
17855;BME280;9053;53.358;6.382;2023-03-03T03:28:42;102580.56;;;2.13;98.28
17855;BME280;9053;53.358;6.382;2023-03-03T03:31:12;102579.81;;;2.14;98.42
17855;BME280;9053;53.358;6.382;2023-03-03T03:33:42;102578.13;;;2.15;98.44
17855;BME280;9053;53.358;6.382;2023-03-03T03:36:12;102580.84;;;2.16;98.35
17855;BME280;9053;53.358;6.382;2023-03-03T03:38:42;102580.84;;;2.16;98.35
17855;BME280;9053;53.358;6.382;2023-03-03T03:41:11;102586.97;;;2.17;98.37
17855;BME280;9053;53.358;6.382;2023-03-03T03:43:44;102583.44;;;2.16;98.44
17855;BME280;9053;53.358;6.382;2023-03-03T03:46:14;102587.88;;;2.17;98.44
17855;BME280;9053;53.358;6.382;2023-03-03T03:48:45;102579.03;;;2.15;98.51
17855;BME280;9053;53.358;6.382;2023-03-03T03:51:15;102577.34;;;2.16;98.42
17855;BME280;9053;53.358;6.382;2023-03-03T03:53:45;102579.03;;;2.15;98.42
17855;BME280;9053;53.358;6.382;2023-03-03T03:56:15;102579.94;;;2.16;98.45
17855;BME280;9053;53.358;6.382;2023-03-03T03:58:48;102578.25;;;2.16;98.57
17855;BME280;9053;53.358;6.382;2023-03-03T04:01:18;102563.44;;;2.15;98.48
17855;BME280;9053;53.358;6.382;2023-03-03T04:03:50;102567.13;;;2.17;98.39
17855;BME280;9053;53.358;6.382;2023-03-03T04:06:20;102565.59;;;2.20;98.64
17855;BME280;9053;53.358;6.382;2023-03-03T04:08:49;102562.66;;;2.16;98.49
17855;BME280;9053;53.358;6.382;2023-03-03T04:11:19;102567.13;;;2.17;98.58
17855;BME280;9053;53.358;6.382;2023-03-03T04:13:51;102562.66;;;2.16;98.57
17855;BME280;9053;53.358;6.382;2023-03-03T04:16:22;102559.16;;;2.16;98.65
17855;BME280;9053;53.358;6.382;2023-03-03T04:18:54;102561.63;;;2.14;98.63
17855;BME280;9053;53.358;6.382;2023-03-03T04:21:25;102568.03;;;2.18;98.50
17855;BME280;9053;53.358;6.382;2023-03-03T04:23:56;102569.84;;;2.19;98.54
17855;BME280;9053;53.358;6.382;2023-03-03T04:26:27;102564.03;;;2.22;98.51
17855;BME280;9053;53.358;6.382;2023-03-03T04:29:00;102564.81;;;2.21;98.58
17855;BME280;9053;53.358;6.382;2023-03-03T04:31:30;102576.09;;;2.21;98.63
17855;BME280;9053;53.358;6.382;2023-03-03T04:34:00;102570.00;;;2.21;98.64
17855;BME280;9053;53.358;6.382;2023-03-03T04:36:30;102570.00;;;2.21;98.63
17855;BME280;9053;53.358;6.382;2023-03-03T04:39:00;102569.84;;;2.19;98.68
17855;BME280;9053;53.358;6.382;2023-03-03T04:41:31;102561.91;;;2.17;98.71
17855;BME280;9053;53.358;6.382;2023-03-03T04:44:03;102571.25;;;2.15;98.62
17855;BME280;9053;53.358;6.382;2023-03-03T04:46:33;102568.66;;;2.15;98.62
17855;BME280;9053;53.358;6.382;2023-03-03T04:49:03;102566.19;;;2.17;98.69
17855;BME280;9053;53.358;6.382;2023-03-03T04:51:37;102574.91;;;2.17;98.56
17855;BME280;9053;53.358;6.382;2023-03-03T04:54:07;102579.94;;;2.16;98.58
17855;BME280;9053;53.358;6.382;2023-03-03T04:56:37;102565.88;;;2.14;98.50
17855;BME280;9053;53.358;6.382;2023-03-03T04:59:10;102565.13;;;2.15;98.43
17855;BME280;9053;53.358;6.382;2023-03-03T05:01:41;102566.03;;;2.15;98.50
17855;BME280;9053;53.358;6.382;2023-03-03T05:04:12;102563.59;;;2.17;98.65
17855;BME280;9053;53.358;6.382;2023-03-03T05:06:42;102568.31;;;2.21;98.55
17855;BME280;9053;53.358;6.382;2023-03-03T05:09:11;102573.66;;;2.23;98.57
17855;BME280;9053;53.358;6.382;2023-03-03T05:11:41;102569.38;;;2.23;98.43
17855;BME280;9053;53.358;6.382;2023-03-03T05:14:14;102567.84;;;2.25;98.43
17855;BME280;9053;53.358;6.382;2023-03-03T05:16:44;102561.75;;;2.25;98.66
17855;BME280;9053;53.358;6.382;2023-03-03T05:19:18;102568.13;;;2.28;98.58
17855;BME280;9053;53.358;6.382;2023-03-03T05:21:48;102579.41;;;2.29;98.54
17855;BME280;9053;53.358;6.382;2023-03-03T05:24:18;102568.28;;;2.30;98.60
17855;BME280;9053;53.358;6.382;2023-03-03T05:26:48;102570.25;;;2.32;98.72
17855;BME280;9053;53.358;6.382;2023-03-03T05:29:20;102566.88;;;2.33;98.68
17855;BME280;9053;53.358;6.382;2023-03-03T05:31:52;102567.78;;;2.34;98.84
17855;BME280;9053;53.358;6.382;2023-03-03T05:34:21;102561.84;;;2.35;98.82
17855;BME280;9053;53.358;6.382;2023-03-03T05:36:51;102556.63;;;2.35;98.94
17855;BME280;9053;53.358;6.382;2023-03-03T05:39:21;102554.16;;;2.36;99.15
17855;BME280;9053;53.358;6.382;2023-03-03T05:41:52;102552.63;;;2.38;99.10
17855;BME280;9053;53.358;6.382;2023-03-03T05:44:26;102557.84;;;2.38;99.11
17855;BME280;9053;53.358;6.382;2023-03-03T05:46:56;102553.53;;;2.39;99.15
17855;BME280;9053;53.358;6.382;2023-03-03T05:49:26;102561.50;;;2.41;99.27
17855;BME280;9053;53.358;6.382;2023-03-03T05:51:55;102553.53;;;2.39;99.18
17855;BME280;9053;53.358;6.382;2023-03-03T05:54:26;102558.00;;;2.40;99.50
17855;BME280;9053;53.358;6.382;2023-03-03T05:56:56;102563.47;;;2.43;99.37
17855;BME280;9053;53.358;6.382;2023-03-03T05:59:28;102558.00;;;2.40;99.48
17855;BME280;9053;53.358;6.382;2023-03-03T06:01:58;102566.06;;;2.43;99.59
17855;BME280;9053;53.358;6.382;2023-03-03T06:04:29;102559.34;;;2.45;99.62
17855;BME280;9053;53.358;6.382;2023-03-03T06:07:01;102566.34;;;2.46;99.79
17855;BME280;9053;53.358;6.382;2023-03-03T06:09:32;102566.34;;;2.46;99.90
17855;BME280;9053;53.358;6.382;2023-03-03T06:12:03;102577.00;;;2.49;99.86
17855;BME280;9053;53.358;6.382;2023-03-03T06:14:37;102577.31;;;2.52;99.97
17855;BME280;9053;53.358;6.382;2023-03-03T06:17:07;102578.22;;;2.53;100.00
17855;BME280;9053;53.358;6.382;2023-03-03T06:19:37;102576.81;;;2.56;100.00
17855;BME280;9053;53.358;6.382;2023-03-03T06:22:08;102576.06;;;2.57;100.00
17855;BME280;9053;53.358;6.382;2023-03-03T06:24:38;102574.50;;;2.59;100.00
17855;BME280;9053;53.358;6.382;2023-03-03T06:27:08;102578.03;;;2.60;100.00
17855;BME280;9053;53.358;6.382;2023-03-03T06:29:41;102576.50;;;2.62;100.00
17855;BME280;9053;53.358;6.382;2023-03-03T06:32:12;102572.97;;;2.62;100.00
17855;BME280;9053;53.358;6.382;2023-03-03T06:34:41;102577.53;;;2.64;100.00
17855;BME280;9053;53.358;6.382;2023-03-03T06:37:12;102583.94;;;2.68;100.00
17855;BME280;9053;53.358;6.382;2023-03-03T06:39:42;102583.16;;;2.69;100.00
17855;BME280;9053;53.358;6.382;2023-03-03T06:42:11;102584.22;;;2.71;100.00
17855;BME280;9053;53.358;6.382;2023-03-03T06:44:44;102585.28;;;2.73;100.00
17855;BME280;9053;53.358;6.382;2023-03-03T06:47:17;102593.22;;;2.74;100.00
17855;BME280;9053;53.358;6.382;2023-03-03T06:49:47;102599.47;;;2.76;100.00
17855;BME280;9053;53.358;6.382;2023-03-03T06:52:20;102605.88;;;2.80;100.00
17855;BME280;9053;53.358;6.382;2023-03-03T06:54:53;102606.00;;;2.81;100.00
17855;BME280;9053;53.358;6.382;2023-03-03T06:57:26;102606.44;;;2.86;100.00
17855;BME280;9053;53.358;6.382;2023-03-03T07:00:09;102608.56;;;2.90;100.00
17855;BME280;9053;53.358;6.382;2023-03-03T07:02:41;102611.44;;;2.93;100.00
17855;BME280;9053;53.358;6.382;2023-03-03T07:05:14;102617.97;;;2.98;100.00
17855;BME280;9053;53.358;6.382;2023-03-03T07:07:48;102615.81;;;3.03;100.00
17855;BME280;9053;53.358;6.382;2023-03-03T07:10:26;102616.25;;;3.08;100.00
17855;BME280;9053;53.358;6.382;2023-03-03T07:13:11;102618.47;;;3.13;100.00
17855;BME280;9053;53.358;6.382;2023-03-03T07:15:48;102612.66;;;3.16;100.00
17855;BME280;9053;53.358;6.382;2023-03-03T07:18:34;102622.97;;;3.24;100.00
17855;BME280;9053;53.358;6.382;2023-03-03T07:21:13;102616.38;;;3.28;100.00
17855;BME280;9053;53.358;6.382;2023-03-03T07:23:46;102616.81;;;3.33;100.00
17855;BME280;9053;53.358;6.382;2023-03-03T07:26:19;102618.88;;;3.37;100.00
17855;BME280;9053;53.358;6.382;2023-03-03T07:28:53;102615.16;;;3.43;100.00
17855;BME280;9053;53.358;6.382;2023-03-03T07:31:32;102618.03;;;3.46;100.00
17855;BME280;9053;53.358;6.382;2023-03-03T07:34:14;102622.75;;;3.51;100.00
17855;BME280;9053;53.358;6.382;2023-03-03T07:36:48;102620.69;;;3.57;100.00
17855;BME280;9053;53.358;6.382;2023-03-03T07:39:29;102621.28;;;3.63;100.00
17855;BME280;9053;53.358;6.382;2023-03-03T07:42:16;102616.34;;;3.66;100.00
17855;BME280;9053;53.358;6.382;2023-03-03T07:44:46;102618.31;;;3.68;100.00
17855;BME280;9053;53.358;6.382;2023-03-03T07:47:23;102623.63;;;3.70;100.00
17855;BME280;9053;53.358;6.382;2023-03-03T07:49:54;102623.13;;;3.74;100.00
17855;BME280;9053;53.358;6.382;2023-03-03T07:52:28;102621.59;;;3.76;100.00
17855;BME280;9053;53.358;6.382;2023-03-03T07:55:00;102627.22;;;3.81;100.00
17855;BME280;9053;53.358;6.382;2023-03-03T07:57:35;102628.53;;;3.86;100.00
17855;BME280;9053;53.358;6.382;2023-03-03T08:03:26;102631.19;;;3.96;100.00
17855;BME280;9053;53.358;6.382;2023-03-03T08:05:56;102626.50;;;4.02;100.00
17855;BME280;9053;53.358;6.382;2023-03-03T08:08:32;102629.03;;;4.11;100.00
17855;BME280;9053;53.358;6.382;2023-03-03T08:11:03;102625.41;;;4.19;100.00
17855;BME280;9053;53.358;6.382;2023-03-03T08:13:40;102634.03;;;4.28;100.00
17855;BME280;9053;53.358;6.382;2023-03-03T08:16:35;102629.22;;;4.43;100.00
17855;BME280;9053;53.358;6.382;2023-03-03T08:19:11;102626.91;;;4.57;100.00
17855;BME280;9053;53.358;6.382;2023-03-03T08:21:44;102633.94;;;4.68;100.00
17855;BME280;9053;53.358;6.382;2023-03-03T08:24:14;102639.06;;;4.76;100.00
17855;BME280;9053;53.358;6.382;2023-03-03T08:26:44;102622.38;;;4.85;100.00
17855;BME280;9053;53.358;6.382;2023-03-03T08:29:14;102629.13;;;4.93;100.00
17855;BME280;9053;53.358;6.382;2023-03-03T08:31:44;102634.34;;;5.03;100.00
17855;BME280;9053;53.358;6.382;2023-03-03T08:34:16;102630.84;;;5.13;100.00
17855;BME280;9053;53.358;6.382;2023-03-03T08:36:46;102628.88;;;5.20;100.00
17855;BME280;9053;53.358;6.382;2023-03-03T08:39:16;102635.53;;;5.27;100.00
17855;BME280;9053;53.358;6.382;2023-03-03T08:41:46;102623.13;;;5.35;100.00
17855;BME280;9053;53.358;6.382;2023-03-03T08:44:16;102623.59;;;5.41;100.00
17855;BME280;9053;53.358;6.382;2023-03-03T08:46:46;102622.53;;;5.49;100.00
17855;BME280;9053;53.358;6.382;2023-03-03T08:49:19;102627.25;;;5.53;100.00
17855;BME280;9053;53.358;6.382;2023-03-03T08:51:49;102624.88;;;5.56;100.00
17855;BME280;9053;53.358;6.382;2023-03-03T08:54:20;102625.41;;;5.62;100.00
17855;BME280;9053;53.358;6.382;2023-03-03T08:56:51;102623.03;;;5.66;100.00
17855;BME280;9053;53.358;6.382;2023-03-03T08:59:21;102619.91;;;5.70;100.00
17855;BME280;9053;53.358;6.382;2023-03-03T09:01:51;102627.97;;;5.73;100.00
17855;BME280;9053;53.358;6.382;2023-03-03T09:04:23;102627.31;;;5.75;100.00
17855;BME280;9053;53.358;6.382;2023-03-03T09:06:53;102631.22;;;5.80;100.00
17855;BME280;9053;53.358;6.382;2023-03-03T09:09:23;102625.31;;;5.83;100.00
17855;BME280;9053;53.358;6.382;2023-03-03T09:11:58;102625.31;;;5.83;100.00
17855;BME280;9053;53.358;6.382;2023-03-03T09:14:28;102631.69;;;5.86;100.00
17855;BME280;9053;53.358;6.382;2023-03-03T09:16:58;102636.91;;;5.86;100.00
17855;BME280;9053;53.358;6.382;2023-03-03T09:19:35;102635.34;;;5.89;100.00
17855;BME280;9053;53.358;6.382;2023-03-03T09:22:18;102641.91;;;5.94;100.00
17855;BME280;9053;53.358;6.382;2023-03-03T09:24:49;102637.84;;;5.97;100.00
17855;BME280;9053;53.358;6.382;2023-03-03T09:27:26;102633.91;;;6.02;100.00
17855;BME280;9053;53.358;6.382;2023-03-03T09:30:00;102631.13;;;6.11;100.00
17855;BME280;9053;53.358;6.382;2023-03-03T09:32:33;102632.53;;;6.18;100.00
17855;BME280;9053;53.358;6.382;2023-03-03T09:35:30;102636.16;;;6.20;100.00
17855;BME280;9053;53.358;6.382;2023-03-03T09:38:18;102633.13;;;6.25;100.00
17855;BME280;9053;53.358;6.382;2023-03-03T09:41:24;102634.78;;;6.35;100.00
17855;BME280;9053;53.358;6.382;2023-03-03T09:44:08;102632.66;;;6.41;100.00
17855;BME280;9053;53.358;6.382;2023-03-03T09:46:53;102637.44;;;6.47;100.00
17855;BME280;9053;53.358;6.382;2023-03-03T09:49:30;102638.19;;;6.56;100.00
17855;BME280;9053;53.358;6.382;2023-03-03T09:52:23;102635.34;;;6.65;100.00
17855;BME280;9053;53.358;6.382;2023-03-03T09:55:02;102636.53;;;6.68;100.00
17855;BME280;9053;53.358;6.382;2023-03-03T09:57:59;102640.28;;;6.72;100.00
17855;BME280;9053;53.358;6.382;2023-03-03T10:00:44;102638.38;;;6.81;100.00
17855;BME280;9053;53.358;6.382;2023-03-03T10:03:34;102643.63;;;6.81;100.00
17855;BME280;9053;53.358;6.382;2023-03-03T10:06:14;102652.50;;;6.83;100.00
17855;BME280;9053;53.358;6.382;2023-03-03T10:09:00;102647.72;;;6.89;100.00
17855;BME280;9053;53.358;6.382;2023-03-03T10:11:37;102647.28;;;6.95;100.00
17855;BME280;9053;53.358;6.382;2023-03-03T10:14:22;102645.94;;;7.00;100.00
17855;BME280;9053;53.358;6.382;2023-03-03T10:17:14;102643.13;;;7.09;100.00
17855;BME280;9053;53.358;6.382;2023-03-03T10:19:59;102644.25;;;7.12;100.00
17855;BME280;9053;53.358;6.382;2023-03-03T10:22:42;102639.72;;;7.10;100.00
17855;BME280;9053;53.358;6.382;2023-03-03T10:25:26;102638.81;;;7.09;100.00
17855;BME280;9053;53.358;6.382;2023-03-03T10:28:20;102644.16;;;7.11;100.00
17855;BME280;9053;53.358;6.382;2023-03-03T10:31:07;102645.97;;;7.12;100.00
17855;BME280;9053;53.358;6.382;2023-03-03T10:33:48;102641.78;;;7.14;100.00
17855;BME280;9053;53.358;6.382;2023-03-03T10:36:31;102639.94;;;7.13;100.00
17855;BME280;9053;53.358;6.382;2023-03-03T10:39:16;102636.78;;;7.17;100.00
17855;BME280;9053;53.358;6.382;2023-03-03T10:42:05;102639.88;;;7.23;100.00
17855;BME280;9053;53.358;6.382;2023-03-03T10:44:52;102637.84;;;7.31;100.00
17855;BME280;9053;53.358;6.382;2023-03-03T10:47:36;102625.53;;;7.42;100.00
17855;BME280;9053;53.358;6.382;2023-03-03T10:50:17;102634.19;;;7.52;100.00
17855;BME280;9053;53.358;6.382;2023-03-03T10:52:55;102621.91;;;7.63;100.00
17855;BME280;9053;53.358;6.382;2023-03-03T10:55:39;102620.88;;;7.73;99.77
17855;BME280;9053;53.358;6.382;2023-03-03T10:58:48;102631.22;;;7.83;99.36
17855;BME280;9053;53.358;6.382;2023-03-03T11:01:28;102627.34;;;7.90;98.99
17855;BME280;9053;53.358;6.382;2023-03-03T11:04:30;102627.78;;;7.96;98.57
17855;BME280;9053;53.358;6.382;2023-03-03T11:07:11;102639.63;;;8.02;98.29
17855;BME280;9053;53.358;6.382;2023-03-03T11:09:57;102638.47;;;8.11;97.81
17855;BME280;9053;53.358;6.382;2023-03-03T11:12:40;102635.28;;;8.15;97.52
17855;BME280;9053;53.358;6.382;2023-03-03T11:15:37;102639.28;;;8.21;97.01
17855;BME280;9053;53.358;6.382;2023-03-03T11:18:16;102633.22;;;8.22;96.65
17855;BME280;9053;53.358;6.382;2023-03-03T11:20:55;102637.97;;;8.28;96.44
17855;BME280;9053;53.358;6.382;2023-03-03T11:23:54;102636.72;;;8.35;96.06
17855;BME280;9053;53.358;6.382;2023-03-03T11:26:41;102635.69;;;8.33;95.66
17855;BME280;9053;53.358;6.382;2023-03-03T11:29:29;102639.34;;;8.35;95.29
17855;BME280;9053;53.358;6.382;2023-03-03T11:32:17;102643.78;;;8.36;95.03
17855;BME280;9053;53.358;6.382;2023-03-03T11:35:11;102628.53;;;8.30;94.55
17855;BME280;9053;53.358;6.382;2023-03-03T11:37:53;102637.50;;;8.34;94.28
17855;BME280;9053;53.358;6.382;2023-03-03T11:40:43;102628.94;;;8.36;93.88
17855;BME280;9053;53.358;6.382;2023-03-03T11:43:17;102629.44;;;8.42;93.72
17855;BME280;9053;53.358;6.382;2023-03-03T11:46:06;102627.72;;;8.43;93.41
17855;BME280;9053;53.358;6.382;2023-03-03T11:48:48;102623.16;;;8.40;93.17
17855;BME280;9053;53.358;6.382;2023-03-03T11:51:29;102623.69;;;8.36;92.86
17855;BME280;9053;53.358;6.382;2023-03-03T11:54:04;102620.09;;;8.34;92.55
17855;BME280;9053;53.358;6.382;2023-03-03T11:56:40;102618.56;;;8.38;92.42
17855;BME280;9053;53.358;6.382;2023-03-03T11:59:23;102618.56;;;8.38;92.13
17855;BME280;9053;53.358;6.382;2023-03-03T12:02:02;102626.44;;;8.38;91.88
17855;BME280;9053;53.358;6.382;2023-03-03T12:04:46;102622.03;;;8.37;91.64
17855;BME280;9053;53.358;6.382;2023-03-03T12:07:25;102616.13;;;8.39;91.46
17855;BME280;9053;53.358;6.382;2023-03-03T12:10:10;102620.19;;;8.48;91.31
17855;BME280;9053;53.358;6.382;2023-03-03T12:12:45;102609.22;;;8.53;91.15
17855;BME280;9053;53.358;6.382;2023-03-03T12:15:26;102612.03;;;8.56;90.97
17855;BME280;9053;53.358;6.382;2023-03-03T12:21:19;102595.06;;;8.51;90.41
17855;BME280;9053;53.358;6.382;2023-03-03T12:24:16;102603.75;;;8.50;90.27
17855;BME280;9053;53.358;6.382;2023-03-03T12:27:00;102590.63;;;8.50;89.98
17855;BME280;9053;53.358;6.382;2023-03-03T12:29:40;102597.69;;;8.51;89.78
17855;BME280;9053;53.358;6.382;2023-03-03T12:32:24;102598.72;;;8.53;89.81
17855;BME280;9053;53.358;6.382;2023-03-03T12:35:10;102602.94;;;8.51;89.61
17855;BME280;9053;53.358;6.382;2023-03-03T12:37:56;102612.53;;;8.51;89.50
17855;BME280;9053;53.358;6.382;2023-03-03T12:40:31;102603.75;;;8.50;89.37
17855;BME280;9053;53.358;6.382;2023-03-03T12:43:18;102598.63;;;8.52;89.27
17855;BME280;9053;53.358;6.382;2023-03-03T12:45:59;102600.31;;;8.51;89.12
17855;BME280;9053;53.358;6.382;2023-03-03T12:48:37;102599.28;;;8.49;88.97
17855;BME280;9053;53.358;6.382;2023-03-03T12:51:16;102589.28;;;8.43;88.86
17855;BME280;9053;53.358;6.382;2023-03-03T12:54:06;102599.56;;;8.40;88.62
17855;BME280;9053;53.358;6.382;2023-03-03T12:56:44;102580.97;;;8.37;88.66
17855;BME280;9053;53.358;6.382;2023-03-03T12:59:19;102581.88;;;8.38;88.58
17855;BME280;9053;53.358;6.382;2023-03-03T13:02:19;102590.56;;;8.37;88.53
17855;BME280;9053;53.358;6.382;2023-03-03T13:05:03;102583.38;;;8.34;88.54
17855;BME280;9053;53.358;6.382;2023-03-03T13:07:40;102585.75;;;8.31;88.52
17855;BME280;9053;53.358;6.382;2023-03-03T13:10:20;102585.75;;;8.31;88.55
17855;BME280;9053;53.358;6.382;2023-03-03T13:12:55;102581.22;;;8.29;88.53
17855;BME280;9053;53.358;6.382;2023-03-03T13:15:29;102582.84;;;8.27;88.44
17855;BME280;9053;53.358;6.382;2023-03-03T13:18:18;102572.34;;;8.27;88.45
17855;BME280;9053;53.358;6.382;2023-03-03T13:20:58;102579.28;;;8.26;88.38
17855;BME280;9053;53.358;6.382;2023-03-03T13:23:40;102579.97;;;8.23;88.29
17855;BME280;9053;53.358;6.382;2023-03-03T13:26:19;102581.00;;;8.26;88.32
17855;BME280;9053;53.358;6.382;2023-03-03T13:28:58;102565.47;;;8.29;88.29
17855;BME280;9053;53.358;6.382;2023-03-03T13:31:33;102562.09;;;8.30;88.36
17855;BME280;9053;53.358;6.382;2023-03-03T13:34:08;102558.66;;;8.31;88.36
17855;BME280;9053;53.358;6.382;2023-03-03T13:36:45;102556.03;;;8.31;88.26
17855;BME280;9053;53.358;6.382;2023-03-03T13:39:21;102554.53;;;8.34;88.31
17855;BME280;9053;53.358;6.382;2023-03-03T13:42:00;102557.94;;;8.33;88.33
17855;BME280;9053;53.358;6.382;2023-03-03T13:44:35;102544.16;;;8.36;88.30
17855;BME280;9053;53.358;6.382;2023-03-03T13:47:13;102553.03;;;8.38;88.20
17855;BME280;9053;53.358;6.382;2023-03-03T13:50:07;102541.53;;;8.36;88.27
17855;BME280;9053;53.358;6.382;2023-03-03T13:52:47;102546.56;;;8.33;88.21
17855;BME280;9053;53.358;6.382;2023-03-03T13:55:27;102542.91;;;8.31;88.22
17855;BME280;9053;53.358;6.382;2023-03-03T13:58:05;102547.47;;;8.33;88.24
17855;BME280;9053;53.358;6.382;2023-03-03T14:00:52;102542.44;;;8.36;88.22